Picton Castle — E5WP — position and weather

sailwx.info

Track history (hours):
 
Tides and Currents Weather Stations Pressure Air Temp Water Temp Dewpoint Dewpoint Depression Visibility Wind Speed Wind Dir Waves Ship Positions

Picton Castle (Cook Islands)

Ship's website: http://www.picton-castle.com/

Last reported at 2017-May-17 03:43 UTC. Time now 2017-May-28 08:25 UTC.
Position N 32°21' W 079°13'.
Warning: this ship's position is 11 days out of date.

Length 37 m; draft 4.4 m.

Type: Sailing vessel. MMSI: 518000019.

Date/timePositionNaut miles runAvg speedWind from/ knotsBaromVisibWave heightAir tempDewpointWater temp
2017-May-17 03:43N 32°21' W 079°13'1 3.0
2017-May-17 03:27N 32°21' W 079°14'7 1.9
2017-May-16 23:56N 32°22' W 079°22'1 1.6
2017-May-16 23:30N 32°22' W 079°23'1 1.3
2017-May-16 23:01N 32°22' W 079°24'1 1.0
2017-May-16 22:12N 32°22' W 079°24'0 0.7
2017-May-16 22:00N 32°22' W 079°25'1 1.2
2017-May-16 21:30N 32°22' W 079°25'3 6.7
2017-May-16 21:01N 32°24' W 079°22'4 6.9
2017-May-16 20:30N 32°26' W 079°19'3 6.8
2017-May-16 20:00N 32°28' W 079°15'10 6.9
2017-May-16 18:36N 32°34' W 079°06'1 7.2
2017-May-16 18:30N 32°35' W 079°06'  
2017-May-10 15:54N 41°45' W 065°37'  
Track history (hours):
 
Tides and Currents Weather Stations Pressure Air Temp Water Temp Dewpoint Dewpoint Depression Visibility Wind Speed Wind Dir Waves Ship Positions

Picton Castle (Cook Islands)

Ship's website: http://www.picton-castle.com/

Last reported at 2017-May-17 03:43 UTC. Time now 2017-May-28 08:25 UTC.
Position N 32°21' W 079°13'.
Warning: this ship's position is 11 days out of date.

Length 37 m; draft 4.4 m.

Type: Sailing vessel. MMSI: 518000019.

Date/timePositionNaut miles runAvg speedWind from/ knotsBaromVisibWave heightAir tempDewpointWater temp
2017-May-17 03:43N 32°21' W 079°13'1 3.0
2017-May-17 03:27N 32°21' W 079°14'7 1.9
2017-May-16 23:56N 32°22' W 079°22'1 1.6
2017-May-16 23:30N 32°22' W 079°23'1 1.3
2017-May-16 23:01N 32°22' W 079°24'1 1.0
2017-May-16 22:12N 32°22' W 079°24'0 0.7
2017-May-16 22:00N 32°22' W 079°25'1 1.2
2017-May-16 21:30N 32°22' W 079°25'3 6.7
2017-May-16 21:01N 32°24' W 079°22'4 6.9
2017-May-16 20:30N 32°26' W 079°19'3 6.8
2017-May-16 20:00N 32°28' W 079°15'10 6.9
2017-May-16 18:36N 32°34' W 079°06'1 7.2
2017-May-16 18:30N 32°35' W 079°06'  
2017-May-10 15:54N 41°45' W 065°37'  

Dump ship's entire track history